sensor_id;sensor_type;location;lat;lon;timestamp;pressure;altitude;pressure_sealevel;temperature;humidity
76095;BME280;64821;13.710;100.604;2024-03-07T00:00:01;100833.75;;;44.00;32.19
76095;BME280;64821;13.710;100.604;2024-03-07T00:01:05;100835.34;;;44.01;32.44
76095;BME280;64821;13.710;100.604;2024-03-07T00:02:09;100835.75;;;44.07;32.10
76095;BME280;64821;13.710;100.604;2024-03-07T00:03:13;100833.38;;;44.05;32.10
76095;BME280;64821;13.710;100.604;2024-03-07T00:04:17;100830.56;;;44.02;31.90
76095;BME280;64821;13.710;100.604;2024-03-07T00:05:22;100845.72;;;44.08;32.15
76095;BME280;64821;13.710;100.604;2024-03-07T00:06:26;100854.09;;;44.11;32.03
76095;BME280;64821;13.710;100.604;2024-03-07T00:07:30;100843.31;;;44.10;32.51
76095;BME280;64821;13.710;100.604;2024-03-07T00:08:35;100828.97;;;44.08;31.91
76095;BME280;64821;13.710;100.604;2024-03-07T00:09:39;100840.94;;;44.12;31.74
76095;BME280;64821;13.710;100.604;2024-03-07T00:10:44;100856.88;;;44.18;32.12
76095;BME280;64821;13.710;100.604;2024-03-07T00:11:49;100852.91;;;44.16;32.10
76095;BME280;64821;13.710;100.604;2024-03-07T00:12:53;100856.88;;;44.08;32.07
76095;BME280;64821;13.710;100.604;2024-03-07T00:13:57;100810.63;;;43.82;32.17
76095;BME280;64821;13.710;100.604;2024-03-07T00:15:01;100836.16;;;43.98;32.05
76095;BME280;64821;13.710;100.604;2024-03-07T00:16:06;100809.03;;;43.84;31.76
76095;BME280;64821;13.710;100.604;2024-03-07T00:17:10;100859.28;;;44.16;31.87
76095;BME280;64821;13.710;100.604;2024-03-07T00:18:14;100864.06;;;44.23;32.08
76095;BME280;64821;13.710;100.604;2024-03-07T00:19:18;100836.16;;;44.02;31.86
76095;BME280;64821;13.710;100.604;2024-03-07T00:20:23;100870.47;;;44.16;32.07
76095;BME280;64821;13.710;100.604;2024-03-07T00:21:27;100852.13;;;44.05;32.11
76095;BME280;64821;13.710;100.604;2024-03-07T00:22:31;100872.03;;;44.21;31.99
76095;BME280;64821;13.710;100.604;2024-03-07T00:23:35;100873.25;;;44.16;32.08
76095;BME280;64821;13.710;100.604;2024-03-07T00:24:39;100848.50;;;43.94;32.05
76095;BME280;64821;13.710;100.604;2024-03-07T00:25:45;100820.19;;;43.81;32.53
76095;BME280;64821;13.710;100.604;2024-03-07T00:26:49;100864.47;;;44.14;32.12
76095;BME280;64821;13.710;100.604;2024-03-07T00:27:53;100880.00;;;44.26;31.78
76095;BME280;64821;13.710;100.604;2024-03-07T00:28:57;100889.19;;;44.34;32.08
76095;BME280;64821;13.710;100.604;2024-03-07T00:30:01;100876.84;;;44.35;31.84
76095;BME280;64821;13.710;100.604;2024-03-07T00:31:05;100863.25;;;44.26;31.74
76095;BME280;64821;13.710;100.604;2024-03-07T00:32:10;100882.41;;;44.45;31.67
76095;BME280;64821;13.710;100.604;2024-03-07T00:33:17;100873.66;;;44.36;31.74
76095;BME280;64821;13.710;100.604;2024-03-07T00:34:22;100877.25;;;44.37;31.95
76095;BME280;64821;13.710;100.604;2024-03-07T00:35:28;100887.56;;;44.50;31.74
76095;BME280;64821;13.710;100.604;2024-03-07T00:36:32;100895.13;;;44.57;31.72
76095;BME280;64821;13.710;100.604;2024-03-07T00:37:36;100891.53;;;44.56;31.56
76095;BME280;64821;13.710;100.604;2024-03-07T00:38:41;100900.75;;;44.53;31.57
76095;BME280;64821;13.710;100.604;2024-03-07T00:39:45;100885.56;;;44.47;31.60
76095;BME280;64821;13.710;100.604;2024-03-07T00:40:51;100890.75;;;44.49;32.02
76095;BME280;64821;13.710;100.604;2024-03-07T00:41:55;100895.16;;;44.53;31.72
76095;BME280;64821;13.710;100.604;2024-03-07T00:42:59;100880.78;;;44.51;31.68
76095;BME280;64821;13.710;100.604;2024-03-07T00:44:03;100892.31;;;44.60;31.69
76095;BME280;64821;13.710;100.604;2024-03-07T00:45:08;100894.31;;;44.56;31.64
76095;BME280;64821;13.710;100.604;2024-03-07T00:46:12;100895.94;;;44.54;31.55
76095;BME280;64821;13.710;100.604;2024-03-07T00:47:19;100896.31;;;44.59;31.76
76095;BME280;64821;13.710;100.604;2024-03-07T00:48:23;100888.72;;;44.60;31.43
76095;BME280;64821;13.710;100.604;2024-03-07T00:49:27;100895.09;;;44.68;31.17
76095;BME280;64821;13.710;100.604;2024-03-07T00:50:31;100891.94;;;44.66;31.46
76095;BME280;64821;13.710;100.604;2024-03-07T00:51:35;100906.31;;;44.75;31.46
76095;BME280;64821;13.710;100.604;2024-03-07T00:52:42;100912.25;;;44.77;31.15
76095;BME280;64821;13.710;100.604;2024-03-07T00:53:46;100896.28;;;44.67;31.46
76095;BME280;64821;13.710;100.604;2024-03-07T00:54:50;100908.28;;;44.74;31.51
76095;BME280;64821;13.710;100.604;2024-03-07T00:55:56;100911.47;;;44.76;31.71
76095;BME280;64821;13.710;100.604;2024-03-07T00:57:00;100901.50;;;44.75;31.52
76095;BME280;64821;13.710;100.604;2024-03-07T00:58:05;100914.22;;;44.94;31.44
76095;BME280;64821;13.710;100.604;2024-03-07T00:59:09;100910.19;;;45.02;31.12
76095;BME280;64821;13.710;100.604;2024-03-07T01:00:14;100918.53;;;45.16;31.13
76095;BME280;64821;13.710;100.604;2024-03-07T01:01:18;100923.72;;;45.18;30.86
76095;BME280;64821;13.710;100.604;2024-03-07T01:02:23;100915.72;;;45.16;31.06
76095;BME280;64821;13.710;100.604;2024-03-07T01:03:27;100924.91;;;45.17;30.78
76095;BME280;64821;13.710;100.604;2024-03-07T01:04:31;100930.06;;;45.25;30.90
76095;BME280;64821;13.710;100.604;2024-03-07T01:05:35;100930.91;;;45.19;31.09
76095;BME280;64821;13.710;100.604;2024-03-07T01:06:39;100932.09;;;45.18;31.04
76095;BME280;64821;13.710;100.604;2024-03-07T01:07:44;100927.34;;;45.11;31.28
76095;BME280;64821;13.710;100.604;2024-03-07T01:08:48;100934.94;;;45.04;31.28
76095;BME280;64821;13.710;100.604;2024-03-07T01:09:52;100935.75;;;45.01;31.42
76095;BME280;64821;13.710;100.604;2024-03-07T01:10:58;100917.00;;;44.94;31.51
76095;BME280;64821;13.710;100.604;2024-03-07T01:12:02;100941.75;;;45.03;31.34
76095;BME280;64821;13.710;100.604;2024-03-07T01:13:06;100936.09;;;45.06;31.38
76095;BME280;64821;13.710;100.604;2024-03-07T01:14:11;100940.50;;;45.07;31.29
76095;BME280;64821;13.710;100.604;2024-03-07T01:15:15;100940.53;;;45.04;31.42
76095;BME280;64821;13.710;100.604;2024-03-07T01:16:19;100945.28;;;45.17;31.00
76095;BME280;64821;13.710;100.604;2024-03-07T01:17:24;100945.28;;;45.24;30.94
76095;BME280;64821;13.710;100.604;2024-03-07T01:18:28;100941.25;;;45.25;31.00
76095;BME280;64821;13.710;100.604;2024-03-07T01:19:32;100945.63;;;45.26;31.08
76095;BME280;64821;13.710;100.604;2024-03-07T01:20:36;100948.84;;;45.28;31.25
76095;BME280;64821;13.710;100.604;2024-03-07T01:21:40;100947.28;;;45.24;31.20
76095;BME280;64821;13.710;100.604;2024-03-07T01:22:44;100942.88;;;45.23;31.64
76095;BME280;64821;13.710;100.604;2024-03-07T01:23:49;100939.28;;;45.19;31.33
76095;BME280;64821;13.710;100.604;2024-03-07T01:24:53;100939.25;;;45.29;31.37
76095;BME280;64821;13.710;100.604;2024-03-07T01:25:59;100946.84;;;45.29;31.40
76095;BME280;64821;13.710;100.604;2024-03-07T01:27:03;100944.44;;;45.27;31.19
76095;BME280;64821;13.710;100.604;2024-03-07T01:28:08;100951.63;;;45.28;31.20
76095;BME280;64821;13.710;100.604;2024-03-07T01:29:12;100932.53;;;45.13;31.18
76095;BME280;64821;13.710;100.604;2024-03-07T01:30:17;100946.03;;;45.32;30.95
76095;BME280;64821;13.710;100.604;2024-03-07T01:31:21;100955.22;;;45.32;31.20
76095;BME280;64821;13.710;100.604;2024-03-07T01:32:25;100950.81;;;45.31;31.23
76095;BME280;64821;13.710;100.604;2024-03-07T01:33:29;100950.03;;;45.27;30.99
76095;BME280;64821;13.710;100.604;2024-03-07T01:34:33;100952.88;;;45.20;31.36
76095;BME280;64821;13.710;100.604;2024-03-07T01:35:37;100954.06;;;45.23;31.08
76095;BME280;64821;13.710;100.604;2024-03-07T01:36:42;100955.22;;;45.25;31.19
76095;BME280;64821;13.710;100.604;2024-03-07T01:37:46;100954.47;;;45.18;31.49
76095;BME280;64821;13.710;100.604;2024-03-07T01:38:50;100952.88;;;45.20;31.08
76095;BME280;64821;13.710;100.604;2024-03-07T01:39:55;100958.06;;;45.18;30.96
76095;BME280;64821;13.710;100.604;2024-03-07T01:41:00;100959.66;;;45.19;31.55
76095;BME280;64821;13.710;100.604;2024-03-07T01:42:05;100959.28;;;45.21;31.53
76095;BME280;64821;13.710;100.604;2024-03-07T01:43:09;100961.66;;;45.15;31.65
76095;BME280;64821;13.710;100.604;2024-03-07T01:44:13;100948.09;;;45.10;31.26
76095;BME280;64821;13.710;100.604;2024-03-07T01:45:17;100960.47;;;45.16;31.30
76095;BME280;64821;13.710;100.604;2024-03-07T01:46:21;100964.06;;;45.06;31.40
76095;BME280;64821;13.710;100.604;2024-03-07T01:47:26;100962.13;;;44.96;31.59
76095;BME280;64821;13.710;100.604;2024-03-07T01:48:31;100972.09;;;45.04;31.39
76095;BME280;64821;13.710;100.604;2024-03-07T01:49:35;100927.03;;;44.77;31.43
76095;BME280;64821;13.710;100.604;2024-03-07T01:50:40;100963.31;;;45.02;31.48
76095;BME280;64821;13.710;100.604;2024-03-07T01:51:44;100976.47;;;45.09;31.40
76095;BME280;64821;13.710;100.604;2024-03-07T01:52:49;100965.72;;;45.04;31.47
76095;BME280;64821;13.710;100.604;2024-03-07T01:53:54;100970.91;;;45.12;31.12
76095;BME280;64821;13.710;100.604;2024-03-07T01:54:58;100970.06;;;45.15;31.06
76095;BME280;64821;13.710;100.604;2024-03-07T01:56:05;100979.59;;;45.28;30.73
76095;BME280;64821;13.710;100.604;2024-03-07T01:57:09;100981.19;;;45.33;31.11
76095;BME280;64821;13.710;100.604;2024-03-07T01:58:18;100971.97;;;45.40;30.51
76095;BME280;64821;13.710;100.604;2024-03-07T01:59:22;100977.91;;;45.45;30.69
76095;BME280;64821;13.710;100.604;2024-03-07T02:00:27;100975.13;;;45.49;30.88
76095;BME280;64821;13.710;100.604;2024-03-07T02:01:31;100983.47;;;45.59;30.79
76095;BME280;64821;13.710;100.604;2024-03-07T02:02:36;100981.03;;;45.65;30.71
76095;BME280;64821;13.710;100.604;2024-03-07T02:03:41;100972.97;;;45.74;30.32
76095;BME280;64821;13.710;100.604;2024-03-07T02:04:45;100976.94;;;45.80;29.98
76095;BME280;64821;13.710;100.604;2024-03-07T02:05:49;100975.78;;;45.74;30.41
76095;BME280;64821;13.710;100.604;2024-03-07T02:06:53;100988.97;;;45.77;30.41
76095;BME280;64821;13.710;100.604;2024-03-07T02:07:58;100985.75;;;45.82;30.30
76095;BME280;64821;13.710;100.604;2024-03-07T02:09:02;100990.53;;;45.82;30.46
76095;BME280;64821;13.710;100.604;2024-03-07T02:10:07;100991.31;;;45.89;29.62
76095;BME280;64821;13.710;100.604;2024-03-07T02:11:13;100983.69;;;45.93;29.56
76095;BME280;64821;13.710;100.604;2024-03-07T02:12:17;100988.13;;;45.91;29.82
76095;BME280;64821;13.710;100.604;2024-03-07T02:13:21;100988.91;;;45.91;30.40
76095;BME280;64821;13.710;100.604;2024-03-07T02:14:26;100989.31;;;45.93;29.83
76095;BME280;64821;13.710;100.604;2024-03-07T02:15:30;100937.09;;;45.62;29.66
76095;BME280;64821;13.710;100.604;2024-03-07T02:16:34;100991.19;;;46.03;30.11
76095;BME280;64821;13.710;100.604;2024-03-07T02:17:39;100996.78;;;46.11;29.36
76095;BME280;64821;13.710;100.604;2024-03-07T02:18:44;100975.59;;;46.06;29.10
76095;BME280;64821;13.710;100.604;2024-03-07T02:19:49;100993.50;;;46.19;29.56
76095;BME280;64821;13.710;100.604;2024-03-07T02:20:55;100997.47;;;46.22;29.29
76095;BME280;64821;13.710;100.604;2024-03-07T02:21:59;100997.03;;;46.23;29.24
76095;BME280;64821;13.710;100.604;2024-03-07T02:23:04;100994.25;;;46.27;29.33
76095;BME280;64821;13.710;100.604;2024-03-07T02:24:08;101000.28;;;46.22;29.16
76095;BME280;64821;13.710;100.604;2024-03-07T02:25:12;100999.06;;;46.26;29.15
76095;BME280;64821;13.710;100.604;2024-03-07T02:26:16;100975.97;;;46.08;29.41
76095;BME280;64821;13.710;100.604;2024-03-07T02:27:20;100996.66;;;46.25;29.55
76095;BME280;64821;13.710;100.604;2024-03-07T02:28:24;101000.59;;;46.34;29.00
76095;BME280;64821;13.710;100.604;2024-03-07T02:29:28;100989.75;;;46.40;28.98
76095;BME280;64821;13.710;100.604;2024-03-07T02:30:33;100990.94;;;46.42;29.32
76095;BME280;64821;13.710;100.604;2024-03-07T02:31:37;100992.09;;;46.45;29.30
76095;BME280;64821;13.710;100.604;2024-03-07T02:32:41;100987.69;;;46.44;29.24
76095;BME280;64821;13.710;100.604;2024-03-07T02:33:45;100997.66;;;46.49;28.86
76095;BME280;64821;13.710;100.604;2024-03-07T02:34:50;100995.69;;;46.46;29.39
76095;BME280;64821;13.710;100.604;2024-03-07T02:35:56;101000.88;;;46.47;28.73
76095;BME280;64821;13.710;100.604;2024-03-07T02:37:00;101000.09;;;46.43;29.04
76095;BME280;64821;13.710;100.604;2024-03-07T02:38:04;101004.97;;;46.39;29.23
76095;BME280;64821;13.710;100.604;2024-03-07T02:39:09;101003.28;;;46.45;29.49
76095;BME280;64821;13.710;100.604;2024-03-07T02:40:13;100999.34;;;46.42;28.98
76095;BME280;64821;13.710;100.604;2024-03-07T02:41:18;101005.28;;;46.48;29.19
76095;BME280;64821;13.710;100.604;2024-03-07T02:42:22;100983.78;;;46.34;28.99
76095;BME280;64821;13.710;100.604;2024-03-07T02:43:26;100999.66;;;46.52;28.88
76095;BME280;64821;13.710;100.604;2024-03-07T02:44:30;100998.41;;;46.53;28.64
76095;BME280;64821;13.710;100.604;2024-03-07T02:45:34;100998.38;;;46.56;29.00
76095;BME280;64821;13.710;100.604;2024-03-07T02:46:38;101000.78;;;46.58;28.56
76095;BME280;64821;13.710;100.604;2024-03-07T02:47:43;100988.75;;;46.61;28.69
76095;BME280;64821;13.710;100.604;2024-03-07T02:48:47;100996.22;;;46.74;29.02
76095;BME280;64821;13.710;100.604;2024-03-07T02:49:52;100998.59;;;46.80;29.03
76095;BME280;64821;13.710;100.604;2024-03-07T02:50:58;100996.53;;;46.84;27.88
76095;BME280;64821;13.710;100.604;2024-03-07T02:52:03;101001.34;;;46.83;28.73
76095;BME280;64821;13.710;100.604;2024-03-07T02:53:07;100995.03;;;46.75;28.94
76095;BME280;64821;13.710;100.604;2024-03-07T02:54:11;101001.50;;;46.69;28.38
76095;BME280;64821;13.710;100.604;2024-03-07T02:55:15;100998.34;;;46.63;29.10
76095;BME280;64821;13.710;100.604;2024-03-07T02:56:20;100996.75;;;46.62;28.37
76095;BME280;64821;13.710;100.604;2024-03-07T02:57:24;100999.91;;;46.68;28.38
76095;BME280;64821;13.710;100.604;2024-03-07T02:58:28;100998.34;;;46.63;29.05
76095;BME280;64821;13.710;100.604;2024-03-07T02:59:32;101004.25;;;46.72;28.96
76095;BME280;64821;13.710;100.604;2024-03-07T03:00:36;100999.50;;;46.69;28.97
76095;BME280;64821;13.710;100.604;2024-03-07T03:01:40;101001.13;;;46.67;29.00
76095;BME280;64821;13.710;100.604;2024-03-07T03:02:45;101007.56;;;46.64;28.71
76095;BME280;64821;13.710;100.604;2024-03-07T03:03:49;101002.38;;;46.59;28.41
76095;BME280;64821;13.710;100.604;2024-03-07T03:04:53;101007.19;;;46.58;28.71
76095;BME280;64821;13.710;100.604;2024-03-07T03:05:59;101004.78;;;46.57;28.15
76095;BME280;64821;13.710;100.604;2024-03-07T03:07:03;100988.34;;;46.62;28.35
76095;BME280;64821;13.710;100.604;2024-03-07T03:08:08;100999.56;;;46.62;28.79
76095;BME280;64821;13.710;100.604;2024-03-07T03:09:12;101003.19;;;46.59;28.86
76095;BME280;64821;13.710;100.604;2024-03-07T03:10:16;100999.16;;;46.60;28.19
76095;BME280;64821;13.710;100.604;2024-03-07T03:11:21;100996.75;;;46.62;28.97
76095;BME280;64821;13.710;100.604;2024-03-07T03:12:25;100994.75;;;46.63;28.93
76095;BME280;64821;13.710;100.604;2024-03-07T03:13:29;100999.22;;;46.53;28.81
76095;BME280;64821;13.710;100.604;2024-03-07T03:14:33;100996.09;;;46.44;28.71
76095;BME280;64821;13.710;100.604;2024-03-07T03:15:38;101006.47;;;46.47;29.05
76095;BME280;64821;13.710;100.604;2024-03-07T03:16:42;100987.63;;;46.51;28.60
76095;BME280;64821;13.710;100.604;2024-03-07T03:17:51;100992.41;;;46.54;28.36
76095;BME280;64821;13.710;100.604;2024-03-07T03:18:55;100990.38;;;46.55;28.59
76095;BME280;64821;13.710;100.604;2024-03-07T03:19:59;100998.34;;;46.63;28.77
76095;BME280;64821;13.710;100.604;2024-03-07T03:21:05;100996.72;;;46.66;28.93
76095;BME280;64821;13.710;100.604;2024-03-07T03:22:09;100992.38;;;46.58;28.61
76095;BME280;64821;13.710;100.604;2024-03-07T03:23:14;101002.00;;;46.53;29.05
76095;BME280;64821;13.710;100.604;2024-03-07T03:24:23;101001.69;;;46.48;28.95
76095;BME280;64821;13.710;100.604;2024-03-07T03:25:28;100999.66;;;46.52;28.87
76095;BME280;64821;13.710;100.604;2024-03-07T03:26:32;101000.38;;;46.59;28.58
76095;BME280;64821;13.710;100.604;2024-03-07T03:27:37;100982.75;;;46.59;28.54
76095;BME280;64821;13.710;100.604;2024-03-07T03:28:41;100989.41;;;46.75;28.40
76095;BME280;64821;13.710;100.604;2024-03-07T03:29:45;100990.13;;;46.83;28.52
76095;BME280;64821;13.710;100.604;2024-03-07T03:30:50;100991.34;;;46.82;28.74
76095;BME280;64821;13.710;100.604;2024-03-07T03:31:55;100989.69;;;46.88;28.57
76095;BME280;64821;13.710;100.604;2024-03-07T03:32:59;100985.88;;;46.71;28.40
76095;BME280;64821;13.710;100.604;2024-03-07T03:34:04;100998.59;;;46.80;28.91
76095;BME280;64821;13.710;100.604;2024-03-07T03:35:09;100985.28;;;46.87;28.32
76095;BME280;64821;13.710;100.604;2024-03-07T03:36:15;100981.19;;;46.99;28.16
76095;BME280;64821;13.710;100.604;2024-03-07T03:37:19;100975.09;;;47.04;28.04
76095;BME280;64821;13.710;100.604;2024-03-07T03:38:23;100981.88;;;47.06;28.42
76095;BME280;64821;13.710;100.604;2024-03-07T03:39:28;100984.69;;;47.06;27.99
76095;BME280;64821;13.710;100.604;2024-03-07T03:40:32;100984.81;;;46.92;28.07
76095;BME280;64821;13.710;100.604;2024-03-07T03:41:36;100979.16;;;46.96;28.61
76095;BME280;64821;13.710;100.604;2024-03-07T03:42:41;100980.75;;;47.00;28.17
76095;BME280;64821;13.710;100.604;2024-03-07T03:43:46;100979.88;;;47.07;28.40
76095;BME280;64821;13.710;100.604;2024-03-07T03:44:50;100981.38;;;47.15;27.81
76095;BME280;64821;13.710;100.604;2024-03-07T03:45:54;100974.13;;;47.18;27.95
76095;BME280;64821;13.710;100.604;2024-03-07T03:46:58;100977.78;;;47.14;27.70
76095;BME280;64821;13.710;100.604;2024-03-07T03:48:03;100971.78;;;47.12;27.96
76095;BME280;64821;13.710;100.604;2024-03-07T03:49:08;100970.56;;;47.13;28.38
76095;BME280;64821;13.710;100.604;2024-03-07T03:50:13;100962.53;;;47.16;28.05
76095;BME280;64821;13.710;100.604;2024-03-07T03:51:19;100970.00;;;47.26;27.24
76095;BME280;64821;13.710;100.604;2024-03-07T03:52:23;100962.06;;;47.21;27.76
76095;BME280;64821;13.710;100.604;2024-03-07T03:53:27;100956.88;;;47.19;28.13
76095;BME280;64821;13.710;100.604;2024-03-07T03:54:32;100959.72;;;47.16;27.87
76095;BME280;64821;13.710;100.604;2024-03-07T03:55:37;100959.81;;;47.08;27.41
76095;BME280;64821;13.710;100.604;2024-03-07T03:56:41;100963.47;;;47.05;28.36
76095;BME280;64821;13.710;100.604;2024-03-07T03:57:45;100960.00;;;46.91;28.58
76095;BME280;64821;13.710;100.604;2024-03-07T03:58:50;100967.97;;;46.92;28.57
76095;BME280;64821;13.710;100.604;2024-03-07T03:59:54;100959.13;;;46.97;28.39
76095;BME280;64821;13.710;100.604;2024-03-07T04:00:58;100959.75;;;47.12;28.26
76095;BME280;64821;13.710;100.604;2024-03-07T04:02:02;100958.09;;;47.18;28.08
76095;BME280;64821;13.710;100.604;2024-03-07T04:03:06;100953.22;;;47.22;27.79
76095;BME280;64821;13.710;100.604;2024-03-07T04:04:10;100950.09;;;47.17;28.23
76095;BME280;64821;13.710;100.604;2024-03-07T04:05:16;100948.03;;;47.21;27.76
76095;BME280;64821;13.710;100.604;2024-03-07T04:06:22;100946.66;;;47.32;27.56
76095;BME280;64821;13.710;100.604;2024-03-07T04:07:26;100941.84;;;47.33;27.68
76095;BME280;64821;13.710;100.604;2024-03-07T04:08:31;100947.84;;;47.35;27.52
76095;BME280;64821;13.710;100.604;2024-03-07T04:09:35;100948.22;;;47.40;27.48
76095;BME280;64821;13.710;100.604;2024-03-07T04:10:39;100943.75;;;47.43;27.71
76095;BME280;64821;13.710;100.604;2024-03-07T04:11:45;100940.47;;;47.48;27.08
76095;BME280;64821;13.710;100.604;2024-03-07T04:12:49;100939.53;;;47.58;27.77
76095;BME280;64821;13.710;100.604;2024-03-07T04:13:54;100937.81;;;47.64;27.22
76095;BME280;64821;13.710;100.604;2024-03-07T04:14:58;100931.78;;;47.66;27.34
76095;BME280;64821;13.710;100.604;2024-03-07T04:16:02;100932.94;;;47.68;27.40
76095;BME280;64821;13.710;100.604;2024-03-07T04:17:06;100923.69;;;47.71;27.53
76095;BME280;64821;13.710;100.604;2024-03-07T04:18:10;100925.31;;;47.69;27.16
76095;BME280;64821;13.710;100.604;2024-03-07T04:19:15;100933.00;;;47.65;27.68
76095;BME280;64821;13.710;100.604;2024-03-07T04:20:19;100899.22;;;47.45;27.35
76095;BME280;64821;13.710;100.604;2024-03-07T04:21:25;100929.72;;;47.70;26.84
76095;BME280;64821;13.710;100.604;2024-03-07T04:22:30;100931.91;;;47.59;27.73
76095;BME280;64821;13.710;100.604;2024-03-07T04:23:34;100907.22;;;47.46;27.18
76095;BME280;64821;13.710;100.604;2024-03-07T04:24:38;100906.38;;;47.49;27.60
76095;BME280;64821;13.710;100.604;2024-03-07T04:25:42;100924.69;;;47.58;27.21
76095;BME280;64821;13.710;100.604;2024-03-07T04:26:46;100918.22;;;47.61;27.46
76095;BME280;64821;13.710;100.604;2024-03-07T04:27:50;100926.28;;;47.59;27.33
76095;BME280;64821;13.710;100.604;2024-03-07T04:28:54;100929.44;;;47.61;27.64
76095;BME280;64821;13.710;100.604;2024-03-07T04:29:59;100917.31;;;47.67;27.24
76095;BME280;64821;13.710;100.604;2024-03-07T04:31:03;100913.28;;;47.68;27.54
76095;BME280;64821;13.710;100.604;2024-03-07T04:32:07;100909.22;;;47.73;27.29
76095;BME280;64821;13.710;100.604;2024-03-07T04:33:11;100925.22;;;47.76;26.90
76095;BME280;64821;13.710;100.604;2024-03-07T04:34:16;100933.78;;;47.65;27.13
76095;BME280;64821;13.710;100.604;2024-03-07T04:35:20;100917.38;;;47.64;27.53
76095;BME280;64821;13.710;100.604;2024-03-07T04:36:26;100914.78;;;47.76;26.48
76095;BME280;64821;13.710;100.604;2024-03-07T04:37:30;100909.09;;;47.80;26.93
76095;BME280;64821;13.710;100.604;2024-03-07T04:38:34;100913.31;;;47.92;27.16
76095;BME280;64821;13.710;100.604;2024-03-07T04:39:39;100915.00;;;47.89;27.00
76095;BME280;64821;13.710;100.604;2024-03-07T04:40:43;100913.03;;;47.86;27.12
76095;BME280;64821;13.710;100.604;2024-03-07T04:41:47;100905.03;;;47.84;26.81
76095;BME280;64821;13.710;100.604;2024-03-07T04:42:51;100911.69;;;47.94;27.10
76095;BME280;64821;13.710;100.604;2024-03-07T04:43:55;100881.47;;;47.78;26.72
76095;BME280;64821;13.710;100.604;2024-03-07T04:44:59;100909.25;;;47.96;27.00
76095;BME280;64821;13.710;100.604;2024-03-07T04:46:03;100901.72;;;47.90;26.85
76095;BME280;64821;13.710;100.604;2024-03-07T04:47:08;100905.66;;;47.96;27.17
76095;BME280;64821;13.710;100.604;2024-03-07T04:48:12;100891.59;;;47.96;27.15
76095;BME280;64821;13.710;100.604;2024-03-07T04:49:16;100887.25;;;47.91;27.12
76095;BME280;64821;13.710;100.604;2024-03-07T04:50:20;100898.06;;;47.93;26.92
76095;BME280;64821;13.710;100.604;2024-03-07T04:51:26;100901.22;;;47.71;27.03
76095;BME280;64821;13.710;100.604;2024-03-07T04:52:30;100901.47;;;47.80;27.44
76095;BME280;64821;13.710;100.604;2024-03-07T04:53:34;100894.53;;;47.89;27.29
76095;BME280;64821;13.710;100.604;2024-03-07T04:54:38;100898.25;;;47.82;27.27
76095;BME280;64821;13.710;100.604;2024-03-07T04:55:42;100884.09;;;47.89;27.23
76095;BME280;64821;13.710;100.604;2024-03-07T04:56:46;100841.09;;;47.69;27.09
76095;BME280;64821;13.710;100.604;2024-03-07T04:57:50;100886.47;;;47.91;26.93
76095;BME280;64821;13.710;100.604;2024-03-07T04:58:55;100878.53;;;47.85;27.18
76095;BME280;64821;13.710;100.604;2024-03-07T04:59:59;100875.22;;;47.91;27.29
76095;BME280;64821;13.710;100.604;2024-03-07T05:01:03;100880.59;;;48.05;26.67
76095;BME280;64821;13.710;100.604;2024-03-07T05:02:07;100886.19;;;48.08;26.85
76095;BME280;64821;13.710;100.604;2024-03-07T05:03:11;100876.25;;;48.00;26.96
76095;BME280;64821;13.710;100.604;2024-03-07T05:04:16;100871.81;;;48.03;27.07
76095;BME280;64821;13.710;100.604;2024-03-07T05:05:20;100867.63;;;48.14;26.72
76095;BME280;64821;13.710;100.604;2024-03-07T05:06:29;100870.78;;;48.16;26.64
76095;BME280;64821;13.710;100.604;2024-03-07T05:07:33;100858.97;;;48.02;27.15
76095;BME280;64821;13.710;100.604;2024-03-07T05:08:37;100865.47;;;47.99;26.76
76095;BME280;64821;13.710;100.604;2024-03-07T05:09:41;100862.28;;;47.97;26.72
76095;BME280;64821;13.710;100.604;2024-03-07T05:10:46;100861.88;;;47.98;26.82
76095;BME280;64821;13.710;100.604;2024-03-07T05:11:50;100862.84;;;48.11;26.79
76095;BME280;64821;13.710;100.604;2024-03-07T05:12:54;100826.34;;;47.88;26.75
76095;BME280;64821;13.710;100.604;2024-03-07T05:13:59;100860.41;;;48.13;26.80
76095;BME280;64821;13.710;100.604;2024-03-07T05:15:04;100863.16;;;48.17;26.92
76095;BME280;64821;13.710;100.604;2024-03-07T05:16:08;100853.44;;;47.98;26.95
76095;BME280;64821;13.710;100.604;2024-03-07T05:17:12;100822.50;;;47.78;27.07
76095;BME280;64821;13.710;100.604;2024-03-07T05:18:17;100848.69;;;47.95;26.71
76095;BME280;64821;13.710;100.604;2024-03-07T05:19:21;100853.69;;;48.07;26.62
76095;BME280;64821;13.710;100.604;2024-03-07T05:20:25;100848.88;;;48.08;26.73
76095;BME280;64821;13.710;100.604;2024-03-07T05:21:31;100848.91;;;48.04;26.35
76095;BME280;64821;13.710;100.604;2024-03-07T05:22:35;100850.97;;;48.00;27.01
76095;BME280;64821;13.710;100.604;2024-03-07T05:23:39;100846.06;;;48.08;27.09
76095;BME280;64821;13.710;100.604;2024-03-07T05:24:43;100841.09;;;48.15;26.54
76095;BME280;64821;13.710;100.604;2024-03-07T05:25:47;100841.31;;;48.25;26.15
76095;BME280;64821;13.710;100.604;2024-03-07T05:26:51;100846.16;;;48.24;26.10
76095;BME280;64821;13.710;100.604;2024-03-07T05:27:55;100838.09;;;48.26;26.38